| Date | Time | Temp. (oF) | Dew Point (oF) | Rel. Hum. (%) | Press. (in.) | Wind Dir. | Wind Speed (mph) | Hourly Rainfall (in.) |
|
|---|---|---|---|---|---|---|---|---|---|
| 1 | 06/16 | 00:00 | 68 | 64 | 89 | 30.08 | NE | 0 | 0.00 |
| 2 | 06/15 | 23:00 | 71 | 66 | 85 | 30.07 | NW | 0 | 0.00 |
| 3 | 06/15 | 22:00 | 73 | 65 | 78 | 30.05 | NW | 0 | 0.00 |
| 4 | 06/15 | 21:00 | 76 | 65 | 71 | 30.03 | NW | 1 | 0.00 |
| 5 | 06/15 | 20:00 | 77 | 65 | 69 | 30.00 | W | 1 | 0.00 |
| 6 | 06/15 | 19:00 | 79 | 65 | 64 | 29.98 | SW | 2 | 0.00 |
| 7 | 06/15 | 18:00 | 80 | 64 | 60 | 29.97 | WSW | 1 | 0.00 |
| 8 | 06/15 | 17:00 | 81 | 63 | 56 | 29.98 | WNW | 6 | 0.00 |
| 9 | 06/15 | 16:00 | 80 | 64 | 59 | 29.99 | WSW | 2 | 0.00 |
| 10 | 06/15 | 15:00 | 81 | 63 | 55 | 29.99 | W | 3 | 0.00 |
| 11 | 06/15 | 14:00 | 81 | 63 | 55 | 30.00 | SW | 3 | 0.00 |
| 12 | 06/15 | 13:00 | 81 | 64 | 58 | 30.02 | WNW | 6 | 0.00 |
| 13 | 06/15 | 12:00 | 80 | 63 | 58 | 30.02 | NNW | 2 | 0.00 |
| 14 | 06/15 | 11:00 | 78 | 64 | 64 | 30.02 | NE | 6 | 0.00 |
| 15 | 06/15 | 10:00 | 76 | 65 | 70 | 30.01 | N | 3 | 0.00 |
| 16 | 06/15 | 09:00 | 74 | 64 | 73 | 30.01 | NNW | 8 | 0.00 |
| 17 | 06/15 | 08:00 | 68 | 63 | 87 | 30.00 | NNW | 1 | 0.00 |
| 18 | 06/15 | 07:00 | 66 | 64 | 95 | 29.98 | WNW | 1 | 0.00 |
| 19 | 06/15 | 06:00 | 66 | 64 | 94 | 29.98 | NW | 0 | 0.00 |
| 20 | 06/15 | 05:00 | 67 | 64 | 93 | 29.96 | NW | 0 | 0.00 |
| 21 | 06/15 | 04:00 | 67 | 66 | 97 | 29.95 | NNW | 1 | 0.00 |
| 22 | 06/15 | 03:00 | 68 | 67 | 99 | 29.96 | WNW | 0 | 0.00 |
| 23 | 06/15 | 02:00 | 69 | 68 | 98 | 29.95 | WNW | 0 | 0.00 |
| 24 | 06/15 | 01:00 | 69 | 68 | 97 | 29.94 | WSW | 0 | 0.00 |